createdAt,value
2022-09-27T00:00:43.865Z,4.80
2022-09-27T00:03:11.877Z,8.03
2022-09-27T00:05:41.698Z,7.73
2022-09-27T00:08:09.704Z,5.10
2022-09-27T00:10:37.560Z,5.13
2022-09-27T00:13:05.346Z,5.93
2022-09-27T00:15:33.196Z,4.20
2022-09-27T00:18:01.018Z,4.80
2022-09-27T00:20:28.853Z,4.87
2022-09-27T00:22:58.010Z,6.00
2022-09-27T00:25:25.829Z,7.23
2022-09-27T00:27:53.570Z,7.07
2022-09-27T00:30:21.388Z,6.20
2022-09-27T00:32:49.225Z,5.57
2022-09-27T00:35:17.188Z,4.47
2022-09-27T00:37:45.000Z,5.57
2022-09-27T00:40:19.394Z,8.87
2022-09-27T00:42:47.679Z,6.95
2022-09-27T00:45:17.871Z,4.97
2022-09-27T00:47:56.205Z,5.53
2022-09-27T00:50:30.913Z,4.83
2022-09-27T00:53:11.202Z,4.87
2022-09-27T00:55:44.252Z,4.87
2022-09-27T00:58:14.767Z,4.73
2022-09-27T01:00:46.946Z,5.73
2022-09-27T01:03:22.261Z,6.13
2022-09-27T01:05:50.795Z,3.70
2022-09-27T01:08:18.716Z,5.17
2022-09-27T01:11:04.694Z,5.45
2022-09-27T01:13:41.272Z,8.10
2022-09-27T01:16:20.342Z,5.23
2022-09-27T01:19:01.268Z,5.87
2022-09-27T01:21:42.560Z,4.17
2022-09-27T01:24:49.329Z,4.73
2022-09-27T01:28:06.826Z,6.20
2022-09-27T01:30:44.673Z,5.03
2022-09-27T01:33:24.622Z,4.50
2022-09-27T01:36:07.283Z,4.13
2022-09-27T01:38:46.520Z,4.90
2022-09-27T01:41:27.841Z,6.07
2022-09-27T01:44:23.316Z,3.63
2022-09-27T01:47:01.530Z,4.57
2022-09-27T01:50:00.245Z,5.70
2022-09-27T01:52:34.784Z,4.37
2022-09-27T01:55:07.975Z,6.67
2022-09-27T01:57:53.543Z,6.60
2022-09-27T02:00:25.606Z,5.13
2022-09-27T02:03:01.528Z,6.80
2022-09-27T02:05:38.807Z,3.97
2022-09-27T02:08:36.948Z,5.57
2022-09-27T02:11:13.893Z,4.73
2022-09-27T02:13:54.168Z,5.17
2022-09-27T02:16:49.963Z,5.60
2022-09-27T02:19:31.167Z,7.10
2022-09-27T02:22:12.363Z,4.87
2022-09-27T02:24:45.185Z,8.37
2022-09-27T02:27:17.147Z,5.83
2022-09-27T02:29:51.870Z,6.60
2022-09-27T02:32:19.888Z,5.33
2022-09-27T02:34:51.619Z,8.40
2022-09-27T02:37:19.712Z,6.03
2022-09-27T02:39:48.594Z,4.83
2022-09-27T02:42:16.692Z,5.37
2022-09-27T02:44:45.206Z,4.50
2022-09-27T02:47:44.035Z,5.07
2022-09-27T02:50:33.075Z,4.80
2022-09-27T02:53:30.944Z,4.67
2022-09-27T02:56:15.863Z,8.10
2022-09-27T02:59:19.883Z,3.20
2022-09-27T03:02:15.444Z,3.77
2022-09-27T03:05:04.326Z,3.93
2022-09-27T03:07:33.867Z,3.23
2022-09-27T03:10:01.684Z,3.33
2022-09-27T03:12:29.690Z,6.47
2022-09-27T03:15:00.058Z,3.67
2022-09-27T03:17:48.118Z,4.23
2022-09-27T03:20:38.760Z,5.40
2022-09-27T03:23:11.511Z,2.70
2022-09-27T03:25:39.612Z,5.87
2022-09-27T03:28:07.391Z,4.50
2022-09-27T03:30:35.951Z,6.43
2022-09-27T03:33:03.983Z,7.57
2022-09-27T03:35:41.760Z,3.77
2022-09-27T03:38:11.797Z,4.70
2022-09-27T03:40:40.589Z,3.33
2022-09-27T03:43:09.175Z,2.47
2022-09-27T03:45:36.999Z,4.50
2022-09-27T03:48:08.202Z,3.03
2022-09-27T03:50:36.226Z,3.10
2022-09-27T03:53:04.128Z,2.87
2022-09-27T03:55:33.435Z,2.93
2022-09-27T03:58:01.324Z,6.13
2022-09-27T04:00:32.245Z,4.27
2022-09-27T04:03:01.038Z,2.10
2022-09-27T04:05:29.907Z,4.63
2022-09-27T04:08:01.292Z,6.50
2022-09-27T04:10:33.253Z,5.33
2022-09-27T04:13:01.507Z,4.23
2022-09-27T04:15:33.770Z,3.33
2022-09-27T04:18:37.061Z,3.43
2022-09-27T04:21:23.624Z,4.20
2022-09-27T04:23:53.555Z,1.83
2022-09-27T04:26:26.407Z,2.77
2022-09-27T04:29:05.920Z,3.97
2022-09-27T04:31:39.084Z,4.17
2022-09-27T04:34:45.527Z,3.77
2022-09-27T04:37:14.977Z,4.30
2022-09-27T04:39:50.118Z,2.03
2022-09-27T04:42:19.667Z,2.60
2022-09-27T04:44:47.826Z,3.47
2022-09-27T04:47:15.786Z,2.17
2022-09-27T04:49:44.000Z,2.97
2022-09-27T04:52:11.855Z,4.00
2022-09-27T04:54:40.290Z,3.70
2022-09-27T04:57:14.495Z,4.50
2022-09-27T04:59:44.856Z,4.73
2022-09-27T05:02:14.116Z,2.20
2022-09-27T05:05:08.767Z,3.77
2022-09-27T05:07:40.457Z,4.37
2022-09-27T05:10:13.405Z,5.47
2022-09-27T05:12:41.830Z,2.13
2022-09-27T05:15:12.100Z,2.00
2022-09-27T05:17:39.856Z,3.40
2022-09-27T05:20:26.761Z,4.37
2022-09-27T05:23:05.638Z,3.60
2022-09-27T05:25:34.943Z,4.33
2022-09-27T05:28:03.449Z,5.90
2022-09-27T05:30:32.831Z,2.87
2022-09-27T05:33:20.951Z,3.07
2022-09-27T05:35:53.625Z,2.90
2022-09-27T05:38:25.182Z,7.10
2022-09-27T05:40:56.646Z,2.40
2022-09-27T05:43:26.203Z,2.93
2022-09-27T05:45:56.043Z,4.83
2022-09-27T05:48:24.533Z,4.07
2022-09-27T05:51:01.306Z,2.87
2022-09-27T05:53:29.315Z,2.00
2022-09-27T05:55:57.119Z,3.70
2022-09-27T05:58:34.392Z,2.80
2022-09-27T06:01:14.608Z,3.50
2022-09-27T06:04:14.487Z,2.60
2022-09-27T06:06:42.355Z,5.30
2022-09-27T06:09:11.971Z,1.97
2022-09-27T06:11:43.139Z,1.53
2022-09-27T06:14:17.364Z,2.57
2022-09-27T06:17:07.590Z,2.07
2022-09-27T06:19:38.948Z,3.93
2022-09-27T06:22:06.885Z,4.37
2022-09-27T06:24:44.189Z,3.17
2022-09-27T06:27:20.058Z,2.87
2022-09-27T06:29:55.883Z,4.37
2022-09-27T06:32:39.814Z,4.07
2022-09-27T06:35:18.280Z,3.73
2022-09-27T06:37:46.376Z,4.23
2022-09-27T06:40:15.220Z,4.33
2022-09-27T06:43:03.444Z,3.33
2022-09-27T06:45:57.210Z,4.47
2022-09-27T06:48:48.087Z,4.67
2022-09-27T06:51:17.303Z,3.10
2022-09-27T06:53:45.221Z,4.00
2022-09-27T06:56:13.658Z,2.33
2022-09-27T06:59:09.700Z,1.73
2022-09-27T07:01:58.036Z,2.87
2022-09-27T07:04:39.115Z,2.23
2022-09-27T07:07:12.866Z,1.87
2022-09-27T07:09:48.836Z,2.63
2022-09-27T07:12:16.744Z,2.50
2022-09-27T07:14:44.712Z,3.50
2022-09-27T07:17:15.896Z,1.90
2022-09-27T07:19:47.282Z,2.67
2022-09-27T07:22:15.674Z,1.83
2022-09-27T07:24:47.095Z,3.00
2022-09-27T07:27:16.241Z,1.40
2022-09-27T07:29:47.070Z,0.87
2022-09-27T07:32:15.071Z,1.97
2022-09-27T07:34:43.847Z,2.40
2022-09-27T07:37:13.788Z,2.00
2022-09-27T07:39:42.254Z,1.80
2022-09-27T07:42:10.156Z,2.10
2022-09-27T07:44:43.295Z,2.03
2022-09-27T07:47:31.374Z,2.60
2022-09-27T07:50:10.410Z,2.80
2022-09-27T07:52:52.570Z,2.23
2022-09-27T07:55:38.324Z,2.83
2022-09-27T07:58:21.729Z,2.63
2022-09-27T08:00:51.719Z,1.83
2022-09-27T08:03:19.679Z,1.93
2022-09-27T08:05:49.455Z,1.23
2022-09-27T08:08:19.555Z,4.10
2022-09-27T08:10:49.638Z,4.00
2022-09-27T08:13:19.968Z,3.03
2022-09-27T08:15:50.120Z,1.37
2022-09-27T08:18:21.866Z,1.90
2022-09-27T08:20:57.814Z,2.17
2022-09-27T08:23:30.124Z,2.40
2022-09-27T08:26:20.815Z,2.37
2022-09-27T08:28:54.701Z,2.67
2022-09-27T08:31:26.198Z,2.37
2022-09-27T08:33:58.064Z,3.87
2022-09-27T08:36:27.152Z,1.30
2022-09-27T08:38:59.078Z,2.10
2022-09-27T08:41:39.881Z,3.80
2022-09-27T08:44:14.204Z,2.27
2022-09-27T08:47:02.639Z,1.63
2022-09-27T08:49:36.688Z,1.20
2022-09-27T08:52:08.503Z,0.83
2022-09-27T08:54:38.804Z,1.40
2022-09-27T08:57:10.353Z,1.30
2022-09-27T08:59:42.715Z,1.60
2022-09-27T09:02:19.018Z,1.97
2022-09-27T09:04:54.912Z,3.07
2022-09-27T09:07:38.534Z,1.60
2022-09-27T09:10:39.671Z,4.33
2022-09-27T09:13:20.402Z,2.70
2022-09-27T09:16:01.532Z,4.13
2022-09-27T09:18:49.459Z,2.23
2022-09-27T09:21:31.270Z,1.40
2022-09-27T09:24:24.371Z,2.70
2022-09-27T09:27:01.324Z,2.33
2022-09-27T09:29:55.970Z,1.37
2022-09-27T09:32:34.609Z,1.73
2022-09-27T09:35:05.680Z,1.47
2022-09-27T09:37:39.957Z,1.90
2022-09-27T09:40:20.797Z,2.20
2022-09-27T09:42:56.363Z,2.23
2022-09-27T09:45:29.455Z,1.77
2022-09-27T09:48:03.899Z,1.70
2022-09-27T09:50:36.520Z,4.23
2022-09-27T09:53:15.328Z,1.77
2022-09-27T09:55:48.972Z,2.50
2022-09-27T09:58:25.507Z,4.13
2022-09-27T10:01:15.536Z,2.10
2022-09-27T10:03:44.146Z,1.37
2022-09-27T10:06:13.814Z,1.53
2022-09-27T10:08:41.893Z,2.97
2022-09-27T10:11:42.435Z,1.63
2022-09-27T10:14:33.556Z,2.30
2022-09-27T10:17:11.067Z,2.20
2022-09-27T10:19:39.689Z,2.20
2022-09-27T10:22:15.912Z,2.50
2022-09-27T10:24:55.979Z,1.30
2022-09-27T10:27:46.994Z,2.70
2022-09-27T10:30:29.891Z,2.77
2022-09-27T10:33:01.639Z,1.77
2022-09-27T10:35:43.547Z,1.67
2022-09-27T10:38:25.690Z,1.90
2022-09-27T10:41:16.245Z,2.70
2022-09-27T10:43:45.850Z,1.80
2022-09-27T10:46:29.772Z,2.03
2022-09-27T10:49:19.535Z,4.33
2022-09-27T10:51:53.982Z,3.00
2022-09-27T10:54:27.622Z,3.73
2022-09-27T10:56:59.024Z,4.07
2022-09-27T10:59:30.707Z,2.47
2022-09-27T11:02:00.443Z,3.73
2022-09-27T11:04:38.816Z,3.20
2022-09-27T11:07:18.435Z,3.30
2022-09-27T11:09:55.627Z,4.43
2022-09-27T11:12:25.498Z,4.50
2022-09-27T11:14:58.603Z,5.03
2022-09-27T11:17:35.453Z,6.47
2022-09-27T11:20:16.964Z,4.53
2022-09-27T11:23:15.703Z,6.80
2022-09-27T11:25:53.458Z,4.50
2022-09-27T11:28:34.569Z,4.47
2022-09-27T11:31:18.853Z,5.03
2022-09-27T11:34:06.535Z,5.43
2022-09-27T11:36:54.588Z,6.23
2022-09-27T11:39:30.203Z,6.97
2022-09-27T11:42:18.960Z,5.83
2022-09-27T11:45:31.984Z,5.47
2022-09-27T11:48:01.756Z,5.03
2022-09-27T11:51:03.642Z,7.10
2022-09-27T11:53:45.779Z,6.00
2022-09-27T11:56:28.569Z,4.13
2022-09-27T11:59:13.845Z,4.20
2022-09-27T12:01:50.950Z,4.97
2022-09-27T12:04:51.106Z,6.70
2022-09-27T12:07:33.259Z,4.97
2022-09-27T12:10:06.023Z,3.70
2022-09-27T12:12:37.816Z,4.00
2022-09-27T12:15:07.701Z,6.70
2022-09-27T12:17:39.837Z,4.83
2022-09-27T12:20:15.790Z,8.17
2022-09-27T12:22:59.462Z,2.80
2022-09-27T12:26:04.603Z,4.83
2022-09-27T12:28:40.869Z,5.17
2022-09-27T12:31:28.910Z,4.87
2022-09-27T12:34:19.568Z,3.83
2022-09-27T12:36:52.701Z,2.93
2022-09-27T12:39:26.688Z,2.87
2022-09-27T12:42:09.624Z,3.70
2022-09-27T12:44:47.606Z,4.03
2022-09-27T12:47:40.224Z,4.13
2022-09-27T12:50:24.710Z,4.13
2022-09-27T12:52:59.344Z,2.90
2022-09-27T12:55:55.733Z,4.27
2022-09-27T12:58:43.525Z,7.20
2022-09-27T13:01:21.499Z,2.53
2022-09-27T13:04:12.275Z,1.83
2022-09-27T13:07:07.075Z,4.07
2022-09-27T13:10:07.814Z,3.77
2022-09-27T13:12:49.826Z,3.17
2022-09-27T13:15:27.614Z,4.67
2022-09-27T13:18:01.787Z,4.60
2022-09-27T13:20:49.363Z,5.57
2022-09-27T13:23:59.453Z,3.20
2022-09-27T13:26:49.709Z,4.03
2022-09-27T13:29:34.963Z,2.50
2022-09-27T13:32:19.508Z,3.27
2022-09-27T13:35:14.171Z,3.83
2022-09-27T13:37:55.279Z,4.13
2022-09-27T13:40:34.667Z,3.43
2022-09-27T13:43:41.885Z,3.40
2022-09-27T13:46:27.725Z,3.77
2022-09-27T13:49:02.443Z,2.43
2022-09-27T13:52:04.777Z,1.83
2022-09-27T13:54:50.719Z,2.03
2022-09-27T13:57:44.115Z,1.40
2022-09-27T14:00:19.781Z,1.20
2022-09-27T14:03:26.879Z,1.90
2022-09-27T14:06:18.588Z,4.43
2022-09-27T14:08:49.991Z,2.70
2022-09-27T14:11:22.968Z,2.07
2022-09-27T14:13:51.717Z,1.20
2022-09-27T14:16:22.333Z,1.43
2022-09-27T14:18:58.329Z,2.27
2022-09-27T14:21:41.610Z,1.67
2022-09-27T14:24:31.588Z,2.03
2022-09-27T14:27:12.095Z,1.63
2022-09-27T14:29:44.830Z,1.53
2022-09-27T14:32:16.481Z,4.87
2022-09-27T14:35:31.690Z,4.00
2022-09-27T14:38:07.534Z,4.13
2022-09-27T14:40:46.014Z,2.97
2022-09-27T14:43:18.278Z,2.30
2022-09-27T14:45:48.298Z,3.43
2022-09-27T14:48:24.381Z,3.63
2022-09-27T14:51:04.798Z,2.37
2022-09-27T14:53:36.263Z,4.10
2022-09-27T14:56:10.304Z,2.00
2022-09-27T14:58:54.099Z,3.93
2022-09-27T15:01:35.584Z,3.77
2022-09-27T15:04:07.888Z,3.43
2022-09-27T15:06:38.205Z,2.60
2022-09-27T15:09:06.998Z,2.80
2022-09-27T15:11:35.266Z,2.63
2022-09-27T15:14:05.783Z,3.10
2022-09-27T15:16:33.992Z,3.20
2022-09-27T15:19:03.440Z,2.97
2022-09-27T15:21:33.669Z,2.27
2022-09-27T15:24:03.625Z,3.37
2022-09-27T15:26:38.644Z,2.73
2022-09-27T15:29:06.983Z,3.17
2022-09-27T15:31:36.884Z,3.27
2022-09-27T15:34:06.715Z,3.47
2022-09-27T15:36:56.028Z,6.93
2022-09-27T15:39:32.271Z,1.90
2022-09-27T15:42:03.522Z,2.60
2022-09-27T15:44:40.405Z,1.57
2022-09-27T15:47:48.336Z,3.77
2022-09-27T15:50:35.859Z,2.10
2022-09-27T15:53:06.787Z,2.70
2022-09-27T15:55:41.101Z,3.40
2022-09-27T15:58:16.532Z,3.87
2022-09-27T16:00:55.502Z,2.57
2022-09-27T16:03:27.355Z,7.20
2022-09-27T16:05:57.105Z,5.83
2022-09-27T16:08:25.108Z,7.10
2022-09-27T16:10:56.011Z,2.73
2022-09-27T16:13:27.786Z,2.43
2022-09-27T16:15:58.918Z,2.27
2022-09-27T16:18:30.378Z,2.30
2022-09-27T16:20:58.682Z,1.87
2022-09-27T16:23:26.392Z,1.43
2022-09-27T16:25:55.543Z,3.33
2022-09-27T16:28:23.278Z,2.40
2022-09-27T16:30:53.914Z,1.83
2022-09-27T16:33:22.095Z,3.57
2022-09-27T16:35:50.167Z,3.10
2022-09-27T16:38:17.847Z,2.00
2022-09-27T16:40:45.652Z,2.80
2022-09-27T16:43:14.973Z,2.87
2022-09-27T16:45:42.670Z,3.30
2022-09-27T16:48:10.355Z,2.73
2022-09-27T16:50:55.507Z,1.80
2022-09-27T16:53:23.624Z,1.30
2022-09-27T16:55:51.329Z,2.87
2022-09-27T16:58:20.383Z,4.63
2022-09-27T17:00:48.133Z,2.93
2022-09-27T17:03:15.879Z,2.37
2022-09-27T17:05:43.568Z,1.70
2022-09-27T17:08:11.761Z,4.13
2022-09-27T17:10:41.231Z,2.60
2022-09-27T17:13:08.910Z,2.60
2022-09-27T17:15:39.422Z,5.27
2022-09-27T17:18:07.123Z,3.63
2022-09-27T17:20:34.828Z,3.53
2022-09-27T17:23:03.024Z,3.43
2022-09-27T17:25:30.900Z,3.73
2022-09-27T17:27:58.920Z,2.73
2022-09-27T17:30:26.647Z,3.70
2022-09-27T17:32:55.754Z,4.10
2022-09-27T17:35:23.492Z,3.87
2022-09-27T17:37:51.256Z,6.00
2022-09-27T17:40:19.206Z,4.60
2022-09-27T17:42:46.986Z,3.93
2022-09-27T17:45:14.868Z,4.37
2022-09-27T17:48:00.110Z,5.20
2022-09-27T17:50:29.744Z,3.07
2022-09-27T17:53:00.518Z,5.93
2022-09-27T17:55:28.186Z,6.33
2022-09-27T17:57:56.115Z,5.93
2022-09-27T18:00:23.902Z,5.03
2022-09-27T18:02:51.670Z,4.33
2022-09-27T18:05:21.235Z,5.97
2022-09-27T18:07:50.467Z,4.90
2022-09-27T18:10:18.688Z,2.40
2022-09-27T18:12:46.435Z,3.50
2022-09-27T18:15:17.894Z,5.63
2022-09-27T18:17:45.790Z,4.07
2022-09-27T18:20:13.489Z,3.97
2022-09-27T18:22:41.174Z,5.73
2022-09-27T18:25:11.989Z,3.40
2022-09-27T18:27:40.291Z,4.80
2022-09-27T18:30:09.394Z,6.27
2022-09-27T18:32:37.070Z,4.73
2022-09-27T18:35:04.938Z,4.37
2022-09-27T18:37:32.634Z,4.30
2022-09-27T18:40:00.609Z,4.67
2022-09-27T18:42:29.716Z,3.97
2022-09-27T18:44:57.495Z,5.50
2022-09-27T18:47:25.332Z,5.63
2022-09-27T18:49:53.312Z,6.03
2022-09-27T18:52:20.954Z,7.07
2022-09-27T18:54:49.132Z,4.23
2022-09-27T18:57:16.821Z,4.87
2022-09-27T18:59:48.236Z,4.03
2022-09-27T19:02:16.298Z,5.80
2022-09-27T19:04:46.932Z,6.10
2022-09-27T19:07:15.114Z,5.23
2022-09-27T19:09:43.011Z,4.50
2022-09-27T19:12:11.138Z,7.20
2022-09-27T19:14:39.169Z,5.47
2022-09-27T19:17:09.882Z,5.93
2022-09-27T19:19:37.623Z,6.70
2022-09-27T19:22:05.643Z,6.77
2022-09-27T19:24:33.343Z,9.27
2022-09-27T19:27:01.029Z,7.93
2022-09-27T19:29:28.868Z,8.40
2022-09-27T19:31:58.431Z,7.40
2022-09-27T19:34:27.706Z,8.27
2022-09-27T19:36:55.579Z,9.93
2022-09-27T19:39:23.238Z,7.33
2022-09-27T19:41:54.404Z,10.70
2022-09-27T19:44:22.084Z,7.17
2022-09-27T19:46:49.826Z,10.97
2022-09-27T19:49:18.734Z,8.23
2022-09-27T19:51:47.916Z,9.83
2022-09-27T19:54:16.408Z,9.73
2022-09-27T19:56:44.115Z,6.37
2022-09-27T19:59:12.224Z,6.80
2022-09-27T20:01:41.277Z,6.47
2022-09-27T20:04:09.075Z,9.87
2022-09-27T20:06:36.807Z,6.47
2022-09-27T20:09:06.251Z,7.77
2022-09-27T20:11:34.746Z,8.60
2022-09-27T20:14:02.832Z,9.30
2022-09-27T20:16:30.564Z,6.27
2022-09-27T20:19:00.014Z,8.27
2022-09-27T20:21:32.501Z,7.73
2022-09-27T20:24:02.040Z,6.93
2022-09-27T20:26:34.451Z,5.83
2022-09-27T20:29:03.503Z,8.17
2022-09-27T20:31:33.458Z,6.30
2022-09-27T20:34:01.655Z,9.23
2022-09-27T20:36:31.190Z,9.20
2022-09-27T20:39:03.008Z,6.57
2022-09-27T20:41:33.701Z,8.77
2022-09-27T20:44:04.310Z,8.13
2022-09-27T20:46:32.750Z,9.17
2022-09-27T20:49:02.821Z,8.03
2022-09-27T20:51:33.260Z,9.67
2022-09-27T20:54:01.579Z,4.73
2022-09-27T20:56:31.479Z,7.90
2022-09-27T20:59:02.731Z,4.57
2022-09-27T21:01:31.983Z,7.73
2022-09-27T21:04:01.515Z,4.83
2022-09-27T21:06:31.224Z,5.30
2022-09-27T21:09:00.104Z,5.67
2022-09-27T21:11:28.295Z,8.57
2022-09-27T21:13:56.883Z,6.80
2022-09-27T21:16:28.008Z,5.80
2022-09-27T21:18:58.580Z,8.67
2022-09-27T21:21:27.200Z,5.27
2022-09-27T21:23:56.886Z,6.90
2022-09-27T21:26:26.113Z,6.90
2022-09-27T21:28:55.875Z,4.87
2022-09-27T21:31:27.195Z,7.37
2022-09-27T21:33:58.512Z,9.00
2022-09-27T21:36:27.807Z,6.33
2022-09-27T21:38:56.332Z,5.93
2022-09-27T21:41:24.115Z,7.60
2022-09-27T21:43:51.840Z,4.43
2022-09-27T21:46:21.065Z,4.57
2022-09-27T21:48:52.639Z,5.20
2022-09-27T21:51:21.902Z,3.03
2022-09-27T21:53:51.619Z,4.17
2022-09-27T21:56:20.258Z,3.60
2022-09-27T21:58:47.920Z,4.10
2022-09-27T22:01:18.068Z,3.23
2022-09-27T22:03:46.608Z,2.60
2022-09-27T22:06:18.472Z,3.43
2022-09-27T22:08:47.612Z,4.67
2022-09-27T22:11:18.590Z,5.83
2022-09-27T22:13:46.493Z,2.30
2022-09-27T22:16:16.429Z,10.20
2022-09-27T22:18:45.126Z,2.23
2022-09-27T22:21:15.841Z,3.27
2022-09-27T22:23:45.365Z,8.13
2022-09-27T22:26:14.729Z,1.70
2022-09-27T22:28:42.677Z,1.70
2022-09-27T22:31:11.468Z,1.83
2022-09-27T22:33:39.336Z,1.67
2022-09-27T22:36:07.449Z,1.90
2022-09-27T22:38:36.488Z,3.53
2022-09-27T22:41:04.397Z,2.17
2022-09-27T22:43:32.812Z,1.77
2022-09-27T22:46:01.202Z,3.13
2022-09-27T22:48:29.402Z,3.20
2022-09-27T22:50:57.827Z,2.57
2022-09-27T22:53:25.726Z,1.63
2022-09-27T22:56:03.165Z,3.33
2022-09-27T22:58:32.751Z,2.77
2022-09-27T23:01:01.432Z,2.80
2022-09-27T23:03:29.238Z,1.63
2022-09-27T23:06:02.933Z,2.83
2022-09-27T23:08:32.905Z,3.43
2022-09-27T23:11:06.496Z,5.27
2022-09-27T23:13:35.429Z,3.33
2022-09-27T23:16:04.961Z,3.27
2022-09-27T23:18:33.590Z,2.23
2022-09-27T23:21:03.325Z,2.00
2022-09-27T23:23:32.169Z,1.53
2022-09-27T23:26:01.606Z,1.10
2022-09-27T23:28:31.462Z,1.80
2022-09-27T23:31:07.854Z,2.13
2022-09-27T23:33:36.212Z,0.87
2022-09-27T23:36:04.210Z,1.87
2022-09-27T23:38:32.483Z,3.57
2022-09-27T23:41:00.615Z,2.20
2022-09-27T23:43:29.924Z,1.20
2022-09-27T23:45:57.618Z,1.90
2022-09-27T23:48:25.579Z,1.63
2022-09-27T23:50:53.374Z,1.80
2022-09-27T23:53:21.773Z,2.23
2022-09-27T23:55:59.565Z,1.40
2022-09-27T23:58:27.199Z,1.37
